Time;durP1;ratioP1;P1;durP2;ratioP2;P2;SDS_P1;SDS_P2;PMS_P1;PMS_P2;Temp;Humidity;BMP_temperature;BMP_pressure;BME280_temperature;BME280_humidity;BME280_pressure;Samples;Min_cycle;Max_cycle;Signal;HPM_P1;HPM_P2
2021/12/21 00:02:05;;;;;;;4.90;1.73;;;;;;;0.38;83.77;96964.16;5038618;28;20212;-69
2021/12/21 00:04:31;;;;;;;1.57;1.47;;;;;;;0.35;82.00;96955.75;5036787;28;20216;-69
2021/12/21 00:06:59;;;;;;;1.50;1.40;;;;;;;0.44;80.48;96953.38;5038262;28;20224;-69
2021/12/21 00:09:26;;;;;;;2.07;1.63;;;;;;;0.26;80.78;96957.16;5037869;28;20208;-69
2021/12/21 00:11:52;;;;;;;4.87;1.13;;;;;;;0.18;80.26;96948.22;5037558;28;20691;-69
2021/12/21 00:14:26;;;;;;;3.60;2.37;;;;;;;0.15;81.69;96958.78;5036203;28;20267;-69
2021/12/21 00:17:13;;;;;;;2.57;1.70;;;;;;;0.15;81.45;96953.59;5037102;28;20780;-69
2021/12/21 00:19:45;;;;;;;2.20;1.57;;;;;;;0.17;81.29;96949.97;5037175;28;20492;-69
2021/12/21 00:22:31;;;;;;;1.80;1.70;;;;;;;0.40;81.85;96951.09;5036875;28;20246;-69
2021/12/21 00:24:58;;;;;;;0.90;0.90;;;;;;;0.09;82.23;96951.41;5037060;28;20225;-69
2021/12/21 00:27:25;;;;;;;2.00;1.47;;;;;;;-0.02;82.09;96946.88;5037158;28;20504;-69
2021/12/21 00:29:52;;;;;;;1.23;1.03;;;;;;;0.08;80.21;96950.56;5037038;28;20211;-69
2021/12/21 00:32:18;;;;;;;0.97;0.97;;;;;;;0.11;80.51;96950.34;5036702;28;20391;-69
2021/12/21 00:34:45;;;;;;;2.03;1.57;;;;;;;0.18;81.46;96943.03;5034328;28;20219;-69
2021/12/21 00:37:12;;;;;;;1.80;1.33;;;;;;;0.25;82.44;96945.13;5036687;28;20703;-69
2021/12/21 00:39:39;;;;;;;0.77;0.77;;;;;;;0.25;82.05;96944.31;5036715;28;20212;-69
2021/12/21 00:42:07;;;;;;;1.13;1.00;;;;;;;0.45;81.32;96943.88;5036986;28;20214;-69
2021/12/21 00:44:33;;;;;;;0.80;0.80;;;;;;;0.19;82.06;96942.94;5036836;28;20212;-69
2021/12/21 00:47:00;;;;;;;2.40;2.10;;;;;;;0.20;81.93;96946.34;5036787;28;20223;-69
2021/12/21 00:49:27;;;;;;;0.73;0.50;;;;;;;0.13;82.66;96932.97;5037331;28;20215;-69
2021/12/21 00:51:53;;;;;;;3.57;2.30;;;;;;;0.16;82.91;96930.16;5036626;28;20211;-69
2021/12/21 00:54:21;;;;;;;1.50;1.10;;;;;;;0.42;83.06;96931.09;5036052;28;20200;-69
2021/12/21 00:56:48;;;;;;;1.73;1.63;;;;;;;0.26;82.97;96930.41;5036380;28;20477;-69
2021/12/21 00:59:15;;;;;;;1.43;0.67;;;;;;;0.13;83.63;96926.97;5036902;28;20565;-69
2021/12/21 01:01:42;;;;;;;2.80;1.17;;;;;;;0.30;82.72;96922.34;5036055;28;20231;-69
2021/12/21 01:04:18;;;;;;;3.07;1.50;;;;;;;0.28;83.49;96928.53;5036460;28;20227;-69
2021/12/21 01:06:58;;;;;;;0.97;0.97;;;;;;;0.17;83.59;96923.25;5037070;28;20752;-69
2021/12/21 01:09:49;;;;;;;1.40;1.33;;;;;;;0.47;82.66;96927.28;5036953;28;20209;-69
2021/12/21 01:12:25;;;;;;;3.57;1.63;;;;;;;0.34;82.97;96918.63;5035755;28;20243;-69
2021/12/21 01:15:05;;;;;;;1.33;1.17;;;;;;;0.30;82.71;96916.34;5037513;28;20217;-69
2021/12/21 01:17:37;;;;;;;2.83;2.07;;;;;;;0.28;82.53;96925.97;5036384;28;21022;-69
2021/12/21 01:20:11;;;;;;;1.07;1.07;;;;;;;0.29;83.29;96925.03;5036576;28;20205;-69
2021/12/21 01:22:57;;;;;;;2.40;1.83;;;;;;;0.10;83.01;96916.78;5035706;28;20231;-69
2021/12/21 01:25:37;;;;;;;1.00;1.00;;;;;;;0.32;83.60;96914.47;5036822;28;20584;-69
2021/12/21 01:28:12;;;;;;;13.97;2.70;;;;;;;0.22;82.36;96911.63;5035824;28;20204;-69
2021/12/21 01:30:48;;;;;;;3.30;1.53;;;;;;;0.18;82.33;96917.94;5036708;28;20792;-69
2021/12/21 01:33:28;;;;;;;5.37;1.33;;;;;;;0.09;82.92;96920.31;5034924;28;20351;-69
2021/12/21 01:35:57;;;;;;;1.50;1.40;;;;;;;-0.01;83.03;96912.28;5033192;28;20211;-69
2021/12/21 01:38:30;;;;;;;1.17;1.07;;;;;;;0.02;83.41;96900.88;5035955;28;20487;-69
2021/12/21 01:41:04;;;;;;;3.43;1.50;;;;;;;0.12;84.20;96901.97;5036020;28;20270;-69
2021/12/21 01:43:36;;;;;;;0.97;0.97;;;;;;;-0.16;82.59;96903.84;5037211;28;20233;-69
2021/12/21 01:51:31;;;;;;;4.13;0.97;;;;;;;-0.10;81.64;96896.50;5039654;28;20526;-69
2021/12/21 01:53:57;;;;;;;2.00;1.47;;;;;;;-0.24;81.14;96893.09;5038724;28;20221;-69
2021/12/21 01:56:26;;;;;;;1.43;0.67;;;;;;;-0.11;81.61;96889.66;5039514;28;20206;-69
2021/12/21 01:58:53;;;;;;;1.00;1.00;;;;;;;-0.08;79.76;96886.03;5039079;28;20209;-69
2021/12/21 02:01:23;;;;;;;2.13;1.93;;;;;;;-0.10;80.27;96882.69;5039286;28;20203;-69
2021/12/21 02:03:50;;;;;;;2.00;1.07;;;;;;;-0.20;81.39;96885.06;5038437;28;20236;-70
2021/12/21 02:06:19;;;;;;;5.60;2.47;;;;;;;-0.13;82.54;96883.72;5038870;28;20225;-69
2021/12/21 02:08:45;;;;;;;0.90;0.90;;;;;;;-0.27;83.02;96878.59;5039245;28;20215;-70
2021/12/21 02:11:12;;;;;;;1.40;0.93;;;;;;;-0.29;83.14;96872.69;5039169;28;20212;-69
2021/12/21 02:13:44;;;;;;;0.80;0.80;;;;;;;-0.02;81.77;96874.34;5038174;28;20585;-69
2021/12/21 02:16:11;;;;;;;0.60;0.60;;;;;;;-0.17;81.90;96871.91;5039609;28;20627;-69
2021/12/21 02:18:48;;;;;;;3.03;2.23;;;;;;;-0.17;82.24;96871.91;5038906;28;20211;-69
2021/12/21 02:21:28;;;;;;;1.23;1.13;;;;;;;-0.09;82.55;96863.66;5039151;28;20347;-69
2021/12/21 02:23:59;;;;;;;3.07;1.70;;;;;;;-0.27;82.46;96870.81;5038143;28;20234;-69
2021/12/21 02:26:47;;;;;;;1.23;0.97;;;;;;;-0.32;82.73;96865.13;5039917;28;20259;-69
2021/12/21 02:29:24;;;;;;;1.40;0.83;;;;;;;-0.30;82.06;96855.47;5039060;28;20201;-69
2021/12/21 02:31:52;;;;;;;2.17;1.57;;;;;;;-0.20;82.33;96860.94;5039123;28;20575;-69
2021/12/21 02:34:20;;;;;;;1.17;1.07;;;;;;;-0.17;81.41;96861.53;5037358;28;20239;-70
2021/12/21 02:36:50;;;;;;;1.23;1.13;;;;;;;-0.23;79.81;96861.09;5037934;28;20399;-69
2021/12/21 02:39:17;;;;;;;0.97;0.90;;;;;;;-0.52;78.25;96862.13;5037862;28;20209;-70
2021/12/21 02:41:45;;;;;;;0.83;0.80;;;;;;;-0.50;78.93;96855.06;5039032;28;20579;-69
2021/12/21 02:44:12;;;;;;;2.97;2.23;;;;;;;-0.61;79.57;96858.34;5038259;28;20228;-69
2021/12/21 02:46:39;;;;;;;2.13;1.17;;;;;;;-0.49;79.30;96861.91;5038149;28;20232;-69
2021/12/21 02:49:07;;;;;;;1.53;1.43;;;;;;;-0.58;78.23;96858.13;5038518;28;20205;-69
2021/12/21 02:51:33;;;;;;;1.30;1.10;;;;;;;-0.62;78.51;96861.03;5038584;28;20205;-69
2021/12/21 02:54:01;;;;;;;1.53;1.43;;;;;;;-0.48;78.96;96859.22;5036991;28;20217;-69
2021/12/21 02:56:28;;;;;;;0.80;0.80;;;;;;;-0.69;78.41;96875.25;5038251;28;20201;-69
2021/12/21 02:58:55;;;;;;;1.33;1.23;;;;;;;-0.65;78.31;96871.53;5038616;28;20201;-69
2021/12/21 03:01:21;;;;;;;0.43;0.43;;;;;;;-0.74;78.25;96876.47;5038389;28;20204;-69
2021/12/21 03:03:48;;;;;;;3.30;1.73;;;;;;;-0.73;79.96;96871.19;5037880;28;20236;-69
2021/12/21 03:06:39;;;;;;;1.00;1.00;;;;;;;-1.08;79.46;96869.94;5038063;28;20229;-69
2021/12/21 03:09:14;;;;;;;1.13;1.07;;;;;;;-0.77;78.14;96872.31;5038310;28;20294;-69
2021/12/21 03:11:50;;;;;;;1.23;0.63;;;;;;;-0.94;77.93;96876.84;5037971;28;20294;-69
2021/12/21 03:14:16;;;;;;;1.03;1.03;;;;;;;-0.95;78.37;96877.78;5037247;28;20907;-69
2021/12/21 03:16:43;;;;;;;2.50;1.30;;;;;;;-1.08;78.88;96872.50;5037750;28;20201;-69
2021/12/21 03:19:11;;;;;;;1.03;1.03;;;;;;;-0.89;79.12;96865.31;5038130;28;20683;-69
2021/12/21 03:21:39;;;;;;;0.70;0.70;;;;;;;-0.96;78.32;96864.00;5037665;28;20205;-69
2021/12/21 03:24:09;;;;;;;2.30;2.10;;;;;;;-0.93;78.67;96866.41;5037873;28;20231;-70
2021/12/21 03:26:36;;;;;;;2.77;1.43;;;;;;;-1.23;79.09;96857.91;5037433;28;20299;-69
2021/12/21 03:29:03;;;;;;;0.97;0.93;;;;;;;-1.28;79.28;96864.28;5035670;28;20209;-69
2021/12/21 03:31:29;;;;;;;0.63;0.63;;;;;;;-1.25;79.15;96864.09;5037502;28;20204;-69
2021/12/21 03:33:56;;;;;;;0.37;0.37;;;;;;;-1.20;78.87;96857.75;5037063;28;20231;-69
2021/12/21 03:36:23;;;;;;;3.70;1.10;;;;;;;-1.22;78.69;96864.75;5035481;28;20583;-69
2021/12/21 03:38:56;;;;;;;0.80;0.80;;;;;;;-0.97;79.50;96854.59;5038342;28;20212;-69
2021/12/21 03:41:24;;;;;;;0.50;0.50;;;;;;;-0.92;78.83;96857.72;5037601;28;20560;-69
2021/12/21 03:43:51;;;;;;;1.33;0.97;;;;;;;-1.21;79.78;96870.72;5036744;28;20720;-69
2021/12/21 03:46:18;;;;;;;1.23;1.00;;;;;;;-1.11;80.83;96861.50;5037977;28;20224;-69
2021/12/21 03:48:48;;;;;;;1.10;1.07;;;;;;;-0.91;80.13;96864.56;5037767;28;20208;-69
2021/12/21 03:51:17;;;;;;;1.37;1.07;;;;;;;-0.82;80.62;96864.00;5037327;28;20204;-69
2021/12/21 03:53:44;;;;;;;0.53;0.53;;;;;;;-0.90;80.76;96870.59;5036736;28;20225;-69
2021/12/21 03:58:53;;;;;;;0.70;0.70;;;;;;;-0.73;80.82;96863.44;5034563;28;20540;-69
2021/12/21 04:01:20;;;;;;;1.17;1.13;;;;;;;-0.91;79.81;96863.75;5036852;28;20240;-69
2021/12/21 04:03:46;;;;;;;1.47;1.37;;;;;;;-0.99;81.32;96866.78;5035973;28;20229;-69
2021/12/21 04:06:14;;;;;;;1.67;1.33;;;;;;;-0.96;80.08;96865.78;5035995;28;20712;-69
2021/12/21 04:08:41;;;;;;;6.03;1.30;;;;;;;-0.93;79.57;96863.84;5037308;28;20208;-69
2021/12/21 04:11:07;;;;;;;1.20;1.17;;;;;;;-1.00;80.94;96864.28;5037091;28;20205;-69
2021/12/21 04:13:34;;;;;;;0.93;0.93;;;;;;;-1.11;81.29;96872.72;5035557;28;20709;-69
2021/12/21 04:16:04;;;;;;;0.93;0.90;;;;;;;-0.78;80.92;96869.81;5036756;28;20206;-69
2021/12/21 04:18:35;;;;;;;2.27;2.13;;;;;;;-1.06;80.41;96865.50;5036743;28;20216;-69
2021/12/21 04:21:01;;;;;;;1.07;0.97;;;;;;;-1.01;81.05;96867.81;5036963;28;20212;-69
2021/12/21 04:23:28;;;;;;;1.90;1.37;;;;;;;-1.11;81.63;96862.38;5035974;28;20233;-69
2021/12/21 04:25:54;;;;;;;1.43;1.23;;;;;;;-1.00;81.20;96867.69;5036990;28;20212;-69
2021/12/21 04:28:21;;;;;;;1.33;1.27;;;;;;;-0.96;80.70;96864.00;5036847;28;20205;-69
2021/12/21 04:30:47;;;;;;;4.70;2.93;;;;;;;-0.94;80.59;96863.91;5036762;28;20214;-69
2021/12/21 04:33:15;;;;;;;2.40;1.60;;;;;;;-0.76;81.33;96858.47;5035615;28;20236;-69
2021/12/21 04:35:41;;;;;;;16.03;3.03;;;;;;;-1.00;81.61;96861.72;5030574;28;20219;-69
2021/12/21 04:38:20;;;;;;;1.50;1.40;;;;;;;-0.96;80.97;96876.94;5036606;28;20247;-69
2021/12/21 04:40:49;;;;;;;1.40;1.07;;;;;;;-0.88;79.27;96874.75;5038308;28;20205;-69
2021/12/21 04:43:16;;;;;;;1.13;1.13;;;;;;;-0.94;79.64;96869.94;5036593;28;20235;-69
2021/12/21 04:45:42;;;;;;;3.23;1.07;;;;;;;-0.98;79.85;96870.19;5037249;28;20205;-69
2021/12/21 04:48:09;;;;;;;1.67;0.90;;;;;;;-1.03;79.61;96873.06;5037337;28;20394;-69
2021/12/21 04:50:36;;;;;;;4.20;1.70;;;;;;;-0.92;79.81;96872.41;5038292;28;20209;-69
2021/12/21 04:53:03;;;;;;;1.20;1.10;;;;;;;-1.13;79.73;96879.72;5036612;28;20239;-69
2021/12/21 04:55:30;;;;;;;0.40;0.40;;;;;;;-1.68;79.09;96879.59;5037078;28;20219;-69
2021/12/21 04:57:57;;;;;;;1.63;1.50;;;;;;;-1.38;77.97;96876.06;5037705;28;20211;-69
2021/12/21 05:00:24;;;;;;;1.33;1.23;;;;;;;-1.26;79.57;96869.34;5037696;28;20675;-69
2021/12/21 05:02:50;;;;;;;0.97;0.83;;;;;;;-1.29;78.87;96875.53;5036517;28;20232;-69
2021/12/21 05:05:17;;;;;;;1.23;1.00;;;;;;;-1.23;79.38;96875.19;5036868;28;20215;-69
2021/12/21 05:07:50;;;;;;;1.23;0.80;;;;;;;-1.15;79.64;96866.03;5037186;28;20234;-69
2021/12/21 05:10:18;;;;;;;2.53;2.00;;;;;;;-1.24;79.44;96865.75;5036622;28;20216;-69
2021/12/21 05:12:45;;;;;;;1.60;1.37;;;;;;;-1.23;79.25;96868.25;5036511;28;20227;-69
2021/12/21 05:15:12;;;;;;;1.63;1.53;;;;;;;-1.15;80.53;96881.53;5036663;28;20215;-69
2021/12/21 05:17:38;;;;;;;2.23;1.50;;;;;;;-1.29;81.50;96877.31;5038177;28;20420;-69
2021/12/21 05:20:06;;;;;;;2.83;1.00;;;;;;;-1.07;81.11;96879.34;5041773;28;20219;-69
2021/12/21 05:22:32;;;;;;;1.37;1.27;;;;;;;-1.13;81.51;96878.88;5040819;28;20228;-69
2021/12/21 05:25:00;;;;;;;0.70;0.70;;;;;;;-0.96;82.68;96874.34;5041362;28;20243;-69
2021/12/21 05:27:27;;;;;;;0.83;0.83;;;;;;;-1.10;82.60;96874.34;5041265;28;20235;-69
2021/12/21 05:29:53;;;;;;;1.97;1.87;;;;;;;-1.04;82.60;96873.97;5040651;28;20564;-69
2021/12/21 05:32:20;;;;;;;5.20;1.43;;;;;;;-1.10;83.44;96873.53;5041199;28;20247;-69
2021/12/21 05:34:46;;;;;;;1.97;1.87;;;;;;;-0.95;83.15;96872.59;5038079;28;20213;-69
2021/12/21 05:37:13;;;;;;;0.90;0.90;;;;;;;-1.02;84.43;96881.66;5041130;28;20211;-69
2021/12/21 05:39:51;;;;;;;1.47;1.37;;;;;;;-0.99;85.13;96874.53;5040678;28;20205;-69
2021/12/21 05:42:19;;;;;;;2.63;1.90;;;;;;;-0.74;85.55;96871.28;5039601;28;20224;-69
2021/12/21 05:44:45;;;;;;;4.47;2.63;;;;;;;-0.94;86.11;96872.50;5040565;28;20240;-69
2021/12/21 05:47:12;;;;;;;3.00;2.63;;;;;;;-0.93;85.77;96873.34;5040441;28;20224;-69
2021/12/21 05:49:38;;;;;;;4.77;1.33;;;;;;;-0.88;86.23;96869.56;5040238;28;20577;-69
2021/12/21 05:52:06;;;;;;;1.87;1.57;;;;;;;-0.71;83.70;96871.94;5040453;28;20206;-68
2021/12/21 05:54:32;;;;;;;5.23;2.47;;;;;;;-0.69;82.57;96864.09;5039617;28;20695;-69
2021/12/21 05:56:59;;;;;;;3.60;2.97;;;;;;;-0.79;81.80;96863.81;5040935;28;20208;-68
2021/12/21 05:59:27;;;;;;;2.70;2.47;;;;;;;-0.63;81.82;96860.19;5040353;28;20205;-68
2021/12/21 06:01:53;;;;;;;2.30;1.97;;;;;;;-0.77;81.50;96872.31;5040216;28;21029;-69
2021/12/21 06:04:21;;;;;;;4.90;2.87;;;;;;;-0.97;81.35;96874.44;5039654;28;20249;-69
2021/12/21 06:06:48;;;;;;;3.57;2.10;;;;;;;-1.02;80.73;96869.56;5040285;28;20228;-69
2021/12/21 06:09:15;;;;;;;1.70;1.60;;;;;;;-1.16;79.45;96863.53;5040031;28;20206;-69
2021/12/21 06:11:47;;;;;;;10.17;2.73;;;;;;;-1.09;80.10;96860.50;5040660;28;20272;-69
2021/12/21 06:25:36;;;;;;;2.67;1.73;;;;;;;-1.18;81.15;96865.41;5039938;28;20219;-69
2021/12/21 06:28:04;;;;;;;2.73;2.43;;;;;;;-1.26;82.08;96871.94;5039725;28;20232;-71
2021/12/21 06:30:31;;;;;;;7.53;4.27;;;;;;;-1.18;81.62;96870.56;5039698;28;20197;-69
2021/12/21 06:32:59;;;;;;;3.17;1.57;;;;;;;-1.45;80.06;96874.78;5039632;28;20225;-68
2021/12/21 06:35:26;;;;;;;1.77;1.50;;;;;;;-1.48;79.07;96872.38;5036050;28;20209;-69
2021/12/21 06:37:53;;;;;;;3.00;1.60;;;;;;;-1.38;79.85;96877.84;5039452;28;20204;-69
2021/12/21 06:40:21;;;;;;;4.33;1.90;;;;;;;-1.23;79.45;96873.41;5039150;28;20205;-69
2021/12/21 06:42:50;;;;;;;2.23;2.03;;;;;;;-1.45;80.14;96861.88;5038522;28;20225;-69
2021/12/21 06:45:27;;;;;;;2.97;2.03;;;;;;;-1.43;79.87;96872.09;5038875;28;20215;-69
2021/12/21 06:53:24;;;;;;;1.60;1.43;;;;;;;-2.02;80.15;96861.81;5038469;28;20302;-69
2021/12/21 06:55:51;;;;;;;1.23;1.03;;;;;;;-1.75;80.18;96871.38;5038906;28;20216;-69
2021/12/21 06:58:17;;;;;;;1.33;1.00;;;;;;;-1.73;79.46;96868.72;5039320;28;20201;-69
2021/12/21 07:00:45;;;;;;;1.13;1.07;;;;;;;-1.55;78.97;96863.31;5039298;28;20211;-69
2021/12/21 07:03:12;;;;;;;1.77;1.60;;;;;;;-1.78;79.53;96861.25;5038417;28;20224;-69
2021/12/21 07:05:40;;;;;;;0.97;0.97;;;;;;;-1.60;80.30;96864.53;5038945;28;20217;-69
2021/12/21 07:08:11;;;;;;;10.50;2.77;;;;;;;-1.51;80.11;96869.16;5038657;28;20268;-69
2021/12/21 07:10:39;;;;;;;1.93;1.27;;;;;;;-1.44;79.81;96860.09;5039275;28;20213;-69
2021/12/21 07:18:35;;;;;;;2.70;0.90;;;;;;;-1.62;78.83;96867.16;5038766;28;20282;-69
2021/12/21 07:21:03;;;;;;;2.10;2.00;;;;;;;-1.37;79.31;96864.81;5039341;28;20250;-69
2021/12/21 07:23:31;;;;;;;5.80;3.40;;;;;;;-1.40;79.57;96856.41;5037351;28;20228;-68
2021/12/21 07:25:57;;;;;;;4.93;3.23;;;;;;;-1.53;79.19;96858.88;5038579;28;20219;-69
2021/12/21 07:28:24;;;;;;;2.90;2.13;;;;;;;-1.62;78.96;96869.75;5038507;28;20234;-69
2021/12/21 07:30:50;;;;;;;4.20;3.00;;;;;;;-1.68;79.65;96859.78;5038117;28;20212;-69
2021/12/21 07:33:18;;;;;;;8.37;5.33;;;;;;;-1.47;80.33;96873.22;5036509;28;20232;-69
2021/12/21 07:35:44;;;;;;;14.17;7.10;;;;;;;-1.40;80.11;96874.50;5035876;28;20209;-69
2021/12/21 07:38:12;;;;;;;15.33;5.63;;;;;;;-1.22;79.20;96871.69;5038076;28;20212;-69
2021/12/21 07:40:39;;;;;;;9.50;4.67;;;;;;;-1.44;78.60;96875.59;5037056;28;20219;-70
2021/12/21 07:43:06;;;;;;;2.33;2.13;;;;;;;-1.40;78.28;96872.78;5038220;28;20229;-70
2021/12/21 07:45:32;;;;;;;4.07;2.67;;;;;;;-1.37;79.10;96869.19;5038659;28;20212;-70
2021/12/21 07:47:59;;;;;;;1.40;1.33;;;;;;;-1.24;79.72;96867.53;5037784;28;20642;-70
2021/12/21 07:50:26;;;;;;;3.77;2.07;;;;;;;-1.15;80.21;96867.78;5038382;28;20208;-70
2021/12/21 07:52:55;;;;;;;3.23;2.20;;;;;;;-1.42;78.15;96876.38;5037440;28;20223;-70
2021/12/21 07:55:24;;;;;;;3.23;1.10;;;;;;;-0.99;77.32;96865.97;5038435;28;20204;-70
2021/12/21 07:57:50;;;;;;;1.50;1.30;;;;;;;-1.07;77.46;96869.00;5038119;28;20207;-70
2021/12/21 08:00:17;;;;;;;2.07;1.97;;;;;;;-1.05;78.29;96866.31;5037992;28;20223;-71
2021/12/21 08:02:44;;;;;;;1.83;1.23;;;;;;;-0.93;78.51;96866.41;5036880;28;20248;-71
2021/12/21 08:05:12;;;;;;;1.53;1.43;;;;;;;-0.73;79.62;96867.78;5038365;28;20229;-71
2021/12/21 08:07:46;;;;;;;4.97;2.97;;;;;;;-0.73;80.06;96868.59;5037402;28;20231;-71
2021/12/21 08:10:26;;;;;;;1.37;1.27;;;;;;;-0.59;79.97;96876.34;5037973;28;20208;-68
2021/12/21 08:12:55;;;;;;;1.80;1.70;;;;;;;-0.45;80.57;96878.91;5037158;28;20234;-69
2021/12/21 08:15:23;;;;;;;2.30;1.50;;;;;;;-0.31;80.26;96881.47;5037572;28;20332;-68
2021/12/21 08:17:49;;;;;;;2.60;1.73;;;;;;;-0.38;80.51;96882.78;5037779;28;21162;-71
2021/12/21 08:20:16;;;;;;;1.57;1.47;;;;;;;-0.29;81.02;96890.00;5037114;28;20211;-71
2021/12/21 08:22:42;;;;;;;2.07;1.67;;;;;;;-0.31;82.37;96887.47;5036933;28;20224;-69
2021/12/21 08:25:09;;;;;;;1.40;1.20;;;;;;;-0.02;81.71;96885.66;5037179;28;20675;-69
2021/12/21 08:27:36;;;;;;;3.60;2.40;;;;;;;-0.03;81.92;96884.81;5037280;28;20239;-68
2021/12/21 08:30:05;;;;;;;3.00;1.03;;;;;;;0.28;81.61;96882.75;5037253;28;20205;-71
2021/12/21 08:32:31;;;;;;;4.50;1.53;;;;;;;0.21;81.57;96888.41;5036997;28;20220;-69
2021/12/21 08:34:58;;;;;;;3.27;2.20;;;;;;;0.29;81.62;96889.56;5034857;28;20238;-68
2021/12/21 08:37:24;;;;;;;6.93;2.97;;;;;;;0.38;82.00;96889.00;5037850;28;20307;-68
2021/12/21 08:39:51;;;;;;;2.83;2.07;;;;;;;0.40;81.09;96887.13;5036828;28;20203;-69
2021/12/21 08:42:17;;;;;;;1.80;1.53;;;;;;;0.41;80.69;96887.94;5036590;28;20228;-68
2021/12/21 08:44:46;;;;;;;2.40;1.47;;;;;;;0.63;80.64;96889.03;5037127;28;20209;-68
2021/12/21 08:47:15;;;;;;;2.37;2.13;;;;;;;0.75;79.82;96888.19;5037758;28;20228;-69
2021/12/21 08:49:42;;;;;;;1.50;1.40;;;;;;;0.57;80.15;96889.44;5037100;28;20208;-68
2021/12/21 08:52:08;;;;;;;6.17;3.40;;;;;;;0.67;79.72;96882.69;5036117;28;20205;-68
2021/12/21 08:54:34;;;;;;;3.70;1.67;;;;;;;0.76;80.46;96889.88;5037232;28;20209;-69
2021/12/21 08:57:01;;;;;;;5.00;1.83;;;;;;;0.78;80.90;96890.63;5037811;28;20205;-69
2021/12/21 08:59:27;;;;;;;2.80;1.33;;;;;;;0.82;81.17;96889.47;5036526;28;20990;-69
2021/12/21 09:01:54;;;;;;;2.63;1.60;;;;;;;0.86;80.66;96888.34;5037119;28;20208;-69
2021/12/21 09:04:22;;;;;;;2.23;1.87;;;;;;;1.12;80.81;96893.44;5036130;28;20221;-69
2021/12/21 09:06:49;;;;;;;8.57;2.43;;;;;;;0.94;80.66;96893.81;5036639;28;20205;-68
2021/12/21 09:09:16;;;;;;;1.93;0.90;;;;;;;0.95;81.15;96898.09;5037115;28;20233;-69
2021/12/21 09:11:45;;;;;;;2.97;1.63;;;;;;;0.95;81.01;96896.31;5036309;28;20221;-68
2021/12/21 09:14:12;;;;;;;3.30;1.80;;;;;;;0.86;81.61;96898.72;5036056;28;20673;-68
2021/12/21 09:16:38;;;;;;;3.97;2.93;;;;;;;0.91;81.60;96894.84;5036454;28;20764;-69
2021/12/21 09:19:05;;;;;;;2.03;1.83;;;;;;;0.87;80.94;96903.78;5037345;28;20200;-69
2021/12/21 09:21:33;;;;;;;2.50;2.07;;;;;;;1.21;81.23;96890.22;5036940;28;20581;-69
2021/12/21 09:23:59;;;;;;;3.90;2.00;;;;;;;1.08;80.57;96898.91;5036190;28;20225;-69
2021/12/21 09:26:27;;;;;;;2.67;1.40;;;;;;;1.28;79.99;96900.03;5037025;28;20212;-69
2021/12/21 09:28:53;;;;;;;3.63;1.93;;;;;;;1.35;79.52;96903.88;5038386;28;20256;-69
2021/12/21 09:31:20;;;;;;;1.90;1.80;;;;;;;1.48;80.18;96901.28;5038790;28;20206;-68
2021/12/21 09:33:46;;;;;;;1.20;1.07;;;;;;;1.28;81.87;96896.63;5037776;28;20224;-69
2021/12/21 09:36:13;;;;;;;2.90;1.37;;;;;;;1.55;80.64;96898.13;5036018;28;20212;-68
2021/12/21 09:38:41;;;;;;;1.73;1.33;;;;;;;1.88;82.26;96903.56;5038435;28;20193;-68
2021/12/21 09:41:07;;;;;;;3.73;1.67;;;;;;;1.65;81.82;96893.97;5038219;28;20219;-69
2021/12/21 09:43:34;;;;;;;5.27;2.50;;;;;;;1.78;81.27;96892.16;5037217;28;20221;-70
2021/12/21 09:46:00;;;;;;;3.03;2.40;;;;;;;1.60;81.75;96890.84;5038498;28;20208;-69
2021/12/21 09:48:29;;;;;;;3.10;2.00;;;;;;;1.72;82.38;96890.00;5037294;28;20650;-70
2021/12/21 09:50:56;;;;;;;2.07;1.80;;;;;;;1.59;82.16;96888.38;5037851;28;20301;-70
2021/12/21 09:53:23;;;;;;;2.90;2.33;;;;;;;1.58;82.63;96892.75;5037227;28;20229;-69
2021/12/21 09:55:50;;;;;;;3.57;2.27;;;;;;;2.03;82.71;96892.09;5037816;28;20300;-70
2021/12/21 09:58:17;;;;;;;1.53;1.43;;;;;;;1.90;81.52;96892.13;5036509;28;20217;-70
2021/12/21 10:00:43;;;;;;;4.93;3.17;;;;;;;1.98;81.76;96894.19;5036936;28;20209;-70
2021/12/21 10:03:10;;;;;;;8.17;3.80;;;;;;;1.94;82.15;96888.34;5036229;28;20221;-70
2021/12/21 10:05:40;;;;;;;5.87;2.83;;;;;;;1.84;82.69;96886.53;5040196;28;20320;-70
2021/12/21 10:08:11;;;;;;;3.00;1.77;;;;;;;1.66;83.06;96882.63;5039917;28;20233;-70
2021/12/21 10:10:44;;;;;;;5.63;2.40;;;;;;;1.82;82.93;96875.44;5040175;28;20206;-70
2021/12/21 10:13:15;;;;;;;2.87;1.90;;;;;;;1.82;83.39;96875.44;5038994;28;21161;-70
2021/12/21 10:15:45;;;;;;;5.27;3.00;;;;;;;1.89;83.40;96874.88;5040150;28;20600;-70
2021/12/21 10:18:12;;;;;;;6.10;2.97;;;;;;;1.89;83.24;96877.47;5039312;28;21564;-70
2021/12/21 10:20:41;;;;;;;3.10;2.70;;;;;;;1.81;83.39;96884.16;5039224;28;20205;-70
2021/12/21 10:23:10;;;;;;;9.40;2.30;;;;;;;1.99;82.76;96881.06;5038819;28;20221;-70
2021/12/21 10:25:41;;;;;;;14.70;6.13;;;;;;;2.14;83.43;96877.38;5039096;28;20236;-71
2021/12/21 10:28:08;;;;;;;5.00;2.33;;;;;;;2.05;82.79;96872.00;5039725;28;20225;-70
2021/12/21 10:30:47;;;;;;;6.10;2.90;;;;;;;2.44;82.00;96875.13;5040242;28;20207;-70
2021/12/21 10:33:13;;;;;;;2.90;2.23;;;;;;;1.72;81.66;96868.38;5039262;28;20224;-70
2021/12/21 10:35:40;;;;;;;1.80;1.67;;;;;;;1.58;83.19;96871.97;5036168;28;20208;-70
2021/12/21 10:38:06;;;;;;;2.67;1.47;;;;;;;2.02;82.05;96856.63;5039922;28;21059;-70
2021/12/21 10:40:33;;;;;;;3.20;2.10;;;;;;;1.84;82.44;96863.97;5039157;28;20235;-70
2021/12/21 10:43:01;;;;;;;0.90;0.90;;;;;;;1.86;83.40;96858.69;5038791;28;20225;-71
2021/12/21 10:45:31;;;;;;;1.77;1.67;;;;;;;1.95;84.13;96850.22;5038973;28;20213;-70
2021/12/21 10:48:01;;;;;;;9.03;4.17;;;;;;;2.32;83.95;96850.03;5039586;28;20229;-71
2021/12/21 10:50:32;;;;;;;3.63;2.30;;;;;;;2.55;82.92;96839.59;5039511;28;20305;-70
2021/12/21 10:52:59;;;;;;;2.90;1.73;;;;;;;2.12;83.31;96839.44;5038802;28;20225;-70
2021/12/21 10:55:31;;;;;;;1.87;1.77;;;;;;;2.25;84.47;96837.59;5039479;28;20207;-71
2021/12/21 10:58:09;;;;;;;1.53;1.43;;;;;;;2.23;83.68;96847.25;5039747;28;20549;-71
2021/12/21 11:00:38;;;;;;;1.40;1.30;;;;;;;2.35;82.26;96836.78;5039143;28;20205;-71
2021/12/21 11:03:06;;;;;;;1.37;1.27;;;;;;;2.64;82.05;96825.06;5038569;28;20234;-71
2021/12/21 11:05:32;;;;;;;11.07;2.43;;;;;;;2.41;81.40;96834.56;5039098;28;20205;-71
2021/12/21 11:08:05;;;;;;;6.87;4.07;;;;;;;2.19;81.10;96832.84;5039630;28;20212;-71
2021/12/21 11:10:34;;;;;;;2.47;1.80;;;;;;;2.72;81.65;96831.34;5038996;28;20250;-71
2021/12/21 11:13:04;;;;;;;1.87;1.77;;;;;;;2.99;80.37;96826.63;5038095;28;20312;-70
2021/12/21 11:15:33;;;;;;;4.43;2.70;;;;;;;3.21;79.49;96817.06;5038736;28;20685;-71
2021/12/21 11:18:01;;;;;;;2.57;1.50;;;;;;;2.98;80.05;96821.56;5039513;28;20209;-71
2021/12/21 11:20:29;;;;;;;7.33;3.80;;;;;;;3.16;79.33;96814.00;5038459;28;20219;-71
2021/12/21 11:22:56;;;;;;;2.83;1.80;;;;;;;3.01;79.41;96819.56;5038262;28;20232;-71
2021/12/21 11:25:24;;;;;;;3.90;1.93;;;;;;;3.00;81.32;96822.28;5039496;28;20211;-70
2021/12/21 11:27:52;;;;;;;4.13;2.57;;;;;;;3.09;79.65;96811.97;5038302;28;20205;-71
2021/12/21 11:30:21;;;;;;;2.10;1.83;;;;;;;3.31;79.65;96812.81;5037972;28;20229;-71
2021/12/21 11:32:51;;;;;;;3.33;2.20;;;;;;;3.18;79.81;96808.66;5038451;28;20229;-71
2021/12/21 11:38:17;;;;;;;4.80;2.87;;;;;;;3.30;79.20;96802.53;4996363;28;20205;-71
2021/12/21 11:40:46;;;;;;;2.23;2.03;;;;;;;2.89;80.95;96812.69;5028212;28;20209;-71
2021/12/21 11:43:21;;;;;;;3.50;1.90;;;;;;;3.04;80.89;96806.28;5038482;28;20239;-71
2021/12/21 11:45:51;;;;;;;6.83;2.90;;;;;;;2.94;81.33;96813.19;5037875;28;20209;-71
2021/12/21 11:48:27;;;;;;;3.93;2.53;;;;;;;3.05;80.39;96813.16;5038635;28;20237;-71
2021/12/21 11:51:02;;;;;;;3.73;1.67;;;;;;;2.93;80.10;96808.91;5038032;28;20653;-71
2021/12/21 11:53:30;;;;;;;1.70;1.60;;;;;;;2.63;81.89;96811.22;5037643;28;20228;-71
2021/12/21 11:55:56;;;;;;;2.53;2.23;;;;;;;2.69;80.54;96815.97;5038255;28;20681;-71
2021/12/21 11:58:25;;;;;;;3.67;2.37;;;;;;;2.22;82.61;96822.22;5038628;28;20210;-71
2021/12/21 12:00:54;;;;;;;2.20;1.73;;;;;;;2.61;82.56;96813.13;5037432;28;20221;-71
2021/12/21 12:03:23;;;;;;;4.20;3.00;;;;;;;3.07;81.07;96813.88;5036965;28;21352;-71
2021/12/21 12:05:55;;;;;;;5.17;2.67;;;;;;;2.74;82.21;96816.44;5037506;28;20668;-71
2021/12/21 12:08:23;;;;;;;2.93;2.27;;;;;;;3.00;81.05;96809.25;5036385;28;20225;-71
2021/12/21 12:10:54;;;;;;;5.30;2.60;;;;;;;2.76;81.00;96813.72;5037996;28;20208;-71
2021/12/21 12:13:31;;;;;;;8.10;2.77;;;;;;;3.21;80.77;96805.84;5036639;28;20286;-71
2021/12/21 12:16:00;;;;;;;5.80;2.10;;;;;;;3.00;80.92;96812.69;5038250;28;20207;-70
2021/12/21 12:18:34;;;;;;;2.77;1.63;;;;;;;2.86;81.92;96806.88;5037073;28;20209;-71